createdAt,value
2019-04-20T00:00:59.853Z,5.10
2019-04-20T00:03:36.756Z,4.60
2019-04-20T00:05:59.339Z,4.13
2019-04-20T00:08:31.453Z,4.93
2019-04-20T00:11:07.428Z,4.70
2019-04-20T00:13:36.632Z,5.30
2019-04-20T00:15:59.922Z,5.10
2019-04-20T00:18:38.208Z,5.03
2019-04-20T00:21:19.103Z,4.60
2019-04-20T00:23:51.380Z,4.23
2019-04-20T00:27:00.682Z,5.90
2019-04-20T00:29:17.493Z,5.27
2019-04-20T00:31:43.166Z,5.20
2019-04-20T00:34:08.091Z,5.67
2019-04-20T00:36:30.761Z,5.33
2019-04-20T00:39:03.771Z,5.63
2019-04-20T00:41:35.125Z,5.10
2019-04-20T00:44:06.845Z,4.67
2019-04-20T00:46:41.166Z,4.53
2019-04-20T00:49:17.252Z,4.70
2019-04-20T00:51:51.561Z,5.30
2019-04-20T00:54:02.662Z,5.33
2019-04-20T00:56:32.951Z,5.53
2019-04-20T00:59:14.438Z,5.30
2019-04-20T01:01:57.392Z,4.73
2019-04-20T01:04:20.476Z,4.50
2019-04-20T01:07:11.298Z,5.07
2019-04-20T01:10:02.714Z,5.97
2019-04-20T01:12:35.053Z,5.17
2019-04-20T01:15:05.935Z,5.87
2019-04-20T01:17:32.313Z,5.63
2019-04-20T01:20:01.042Z,5.07
2019-04-20T01:22:35.306Z,5.37
2019-04-20T01:25:04.990Z,5.37
2019-04-20T01:27:42.416Z,5.20
2019-04-20T01:30:10.582Z,5.50
2019-04-20T01:32:47.375Z,5.33
2019-04-20T01:35:18.434Z,5.00
2019-04-20T01:37:52.229Z,5.20
2019-04-20T01:40:04.550Z,4.90
2019-04-20T01:42:32.278Z,4.83
2019-04-20T01:45:05.643Z,4.80
2019-04-20T01:47:38.719Z,4.83
2019-04-20T01:50:08.578Z,5.23
2019-04-20T01:52:48.274Z,5.43
2019-04-20T01:55:34.694Z,4.63
2019-04-20T01:58:06.224Z,5.33
2019-04-20T02:00:51.212Z,5.80
2019-04-20T02:03:46.189Z,4.97
2019-04-20T02:06:16.718Z,5.53
2019-04-20T02:08:42.258Z,5.03
2019-04-20T02:11:20.596Z,5.27
2019-04-20T02:13:48.004Z,4.87
2019-04-20T02:16:22.702Z,5.17
2019-04-20T02:18:59.139Z,4.97
2019-04-20T02:21:28.792Z,5.10
2019-04-20T02:23:49.978Z,4.97
2019-04-20T02:26:14.327Z,5.30
2019-04-20T02:29:12.917Z,5.07
2019-04-20T02:31:55.850Z,4.57
2019-04-20T02:37:36.266Z,5.37
2019-04-20T02:40:04.638Z,5.00
2019-04-20T02:42:42.408Z,4.87
2019-04-20T02:45:10.553Z,5.40
2019-04-20T02:49:56.703Z,4.47
2019-04-20T02:55:09.397Z,4.80
2019-04-20T03:02:18.520Z,4.40
2019-04-20T03:04:39.136Z,5.03
2019-04-20T03:07:14.945Z,5.20
2019-04-20T03:09:50.119Z,4.83
2019-04-20T03:12:29.054Z,4.63
2019-04-20T03:14:47.413Z,4.03
2019-04-20T03:17:29.813Z,4.73
2019-04-20T03:19:51.493Z,4.30
2019-04-20T03:22:35.324Z,4.60
2019-04-20T03:24:59.521Z,4.77
2019-04-20T03:27:23.888Z,4.63
2019-04-20T03:31:14.020Z,4.03
2019-04-20T03:35:28.099Z,5.13
2019-04-20T03:38:00.050Z,4.87
2019-04-20T03:40:23.156Z,4.60
2019-04-20T03:42:36.999Z,4.70
2019-04-20T03:45:12.238Z,5.70
2019-04-20T03:47:49.780Z,5.60
2019-04-20T03:50:31.021Z,4.53
2019-04-20T03:53:19.916Z,5.37
2019-04-20T03:56:11.703Z,5.10
2019-04-20T03:58:55.473Z,5.53
2019-04-20T04:02:09.373Z,5.90
2019-04-20T04:04:31.265Z,6.20
2019-04-20T04:06:44.828Z,5.83
2019-04-20T04:09:21.437Z,6.00
2019-04-20T04:11:54.866Z,6.33
2019-04-20T04:14:09.471Z,6.00
2019-04-20T04:16:45.753Z,5.90
2019-04-20T04:19:17.683Z,5.73
2019-04-20T04:21:52.554Z,6.03
2019-04-20T04:24:23.512Z,6.50
2019-04-20T04:26:55.055Z,6.53
2019-04-20T04:29:34.620Z,6.27
2019-04-20T04:32:10.486Z,6.43
2019-04-20T04:34:30.709Z,7.27
2019-04-20T04:37:03.244Z,6.83
2019-04-20T04:39:33.866Z,7.37
2019-04-20T04:42:14.224Z,6.80
2019-04-20T04:44:26.330Z,7.20
2019-04-20T04:46:51.082Z,6.90
2019-04-20T04:49:20.794Z,7.23
2019-04-20T04:51:51.993Z,6.93
2019-04-20T04:54:26.894Z,6.70
2019-04-20T04:56:44.396Z,6.63
2019-04-20T04:59:12.930Z,7.00
2019-04-20T05:01:45.266Z,6.53
2019-04-20T05:04:33.966Z,6.33
2019-04-20T05:06:59.524Z,7.23
2019-04-20T05:09:15.413Z,6.60
2019-04-20T05:11:42.857Z,6.53
2019-04-20T05:14:21.485Z,6.37
2019-04-20T05:16:59.356Z,7.10
2019-04-20T05:19:36.852Z,6.80
2019-04-20T05:22:09.722Z,6.67
2019-04-20T05:24:41.647Z,7.00
2019-04-20T05:27:36.136Z,6.60
2019-04-20T05:29:42.953Z,6.20
2019-04-20T05:32:17.007Z,6.50
2019-04-20T05:35:07.321Z,6.27
2019-04-20T05:37:43.512Z,6.63
2019-04-20T05:40:06.197Z,6.07
2019-04-20T05:42:37.230Z,6.80
2019-04-20T05:45:01.430Z,6.37
2019-04-20T05:47:34.461Z,6.43
2019-04-20T05:49:56.957Z,6.47
2019-04-20T05:52:45.655Z,6.67
2019-04-20T05:55:09.009Z,6.13
2019-04-20T05:57:35.004Z,6.10
2019-04-20T06:00:12.637Z,6.47
2019-04-20T06:02:39.146Z,6.80
2019-04-20T06:05:08.693Z,6.07
2019-04-20T06:07:40.386Z,6.03
2019-04-20T06:10:11.448Z,6.80
2019-04-20T06:12:41.280Z,5.53
2019-04-20T06:15:12.765Z,5.73
2019-04-20T06:17:58.454Z,6.30
2019-04-20T06:20:35.820Z,6.00
2019-04-20T06:23:15.669Z,5.40
2019-04-20T06:25:52.987Z,6.40
2019-04-20T06:28:12.422Z,6.27
2019-04-20T06:30:40.614Z,6.37
2019-04-20T06:34:19.333Z,6.47
2019-04-20T06:36:27.660Z,6.67
2019-04-20T06:39:02.296Z,6.37
2019-04-20T06:41:40.205Z,6.53
2019-04-20T06:43:53.709Z,6.23
2019-04-20T06:46:21.849Z,5.87
2019-04-20T06:48:52.005Z,6.60
2019-04-20T06:51:31.102Z,6.50
2019-04-20T06:54:09.529Z,6.37
2019-04-20T06:56:49.889Z,6.37
2019-04-20T06:59:26.527Z,5.87
2019-04-20T07:01:56.398Z,6.00
2019-04-20T07:04:41.848Z,6.53
2019-04-20T07:06:56.602Z,6.63
2019-04-20T07:09:22.012Z,5.90
2019-04-20T07:11:50.541Z,6.60
2019-04-20T07:14:07.788Z,6.20
2019-04-20T07:17:21.914Z,6.23
2019-04-20T07:20:00.234Z,6.70
2019-04-20T07:22:40.234Z,6.03
2019-04-20T07:25:12.398Z,6.83
2019-04-20T07:27:41.533Z,6.23
2019-04-20T07:30:12.287Z,6.97
2019-04-20T07:32:48.559Z,7.03
2019-04-20T07:35:14.494Z,6.20
2019-04-20T07:38:08.670Z,6.73
2019-04-20T07:40:16.202Z,6.43
2019-04-20T07:42:51.118Z,6.63
2019-04-20T07:45:21.659Z,7.17
2019-04-20T07:47:52.739Z,6.20
2019-04-20T07:50:13.552Z,6.13
2019-04-20T07:52:39.664Z,7.07
2019-04-20T07:55:33.655Z,6.63
2019-04-20T07:57:41.896Z,6.30
2019-04-20T08:00:19.728Z,6.40
2019-04-20T08:03:11.712Z,6.30
2019-04-20T08:05:43.892Z,6.20
2019-04-20T08:08:18.311Z,6.45
2019-04-20T08:10:50.649Z,6.40
2019-04-20T08:15:58.775Z,5.62
2019-04-20T08:18:36.129Z,6.65
2019-04-20T08:20:52.846Z,6.20
2019-04-20T08:23:23.367Z,6.60
2019-04-20T08:25:45.459Z,7.08
2019-04-20T08:28:24.242Z,6.08
2019-04-20T08:31:10.387Z,6.67
2019-04-20T08:33:55.510Z,6.62
2019-04-20T08:36:23.093Z,6.05
2019-04-20T08:41:14.244Z,6.35
2019-04-20T08:44:09.864Z,6.65
2019-04-20T08:46:20.437Z,6.08
2019-04-20T08:48:52.238Z,5.67
2019-04-20T08:51:19.986Z,6.45
2019-04-20T08:53:51.809Z,6.28
2019-04-20T08:56:13.998Z,6.08
2019-04-20T08:58:31.625Z,6.05
2019-04-20T09:01:04.834Z,5.53
2019-04-20T09:03:43.804Z,5.90
2019-04-20T09:06:08.569Z,5.42
2019-04-20T09:08:44.324Z,5.95
2019-04-20T09:11:21.847Z,5.53
2019-04-20T09:13:40.482Z,5.90
2019-04-20T09:16:02.582Z,5.78
2019-04-20T09:18:43.259Z,5.22
2019-04-20T09:21:13.718Z,4.85
2019-04-20T09:23:50.517Z,5.42
2019-04-20T09:26:26.781Z,5.33
2019-04-20T09:28:59.005Z,5.90
2019-04-20T09:31:39.557Z,5.75
2019-04-20T09:34:49.096Z,5.45
2019-04-20T09:37:23.669Z,5.08
2019-04-20T09:40:03.448Z,5.87
2019-04-20T09:42:36.332Z,4.95
2019-04-20T09:45:06.575Z,5.28
2019-04-20T09:47:43.571Z,4.92
2019-04-20T09:50:26.337Z,4.80
2019-04-20T09:52:55.170Z,4.80
2019-04-20T09:55:21.662Z,4.45
2019-04-20T09:57:58.656Z,5.00
2019-04-20T10:00:23.565Z,5.08
2019-04-20T10:02:41.702Z,4.95
2019-04-20T10:05:11.538Z,4.70
2019-04-20T10:07:40.986Z,4.78
2019-04-20T10:10:21.426Z,5.30
2019-04-20T10:12:41.856Z,4.80
2019-04-20T10:15:17.304Z,4.67
2019-04-20T10:17:41.426Z,4.78
2019-04-20T10:20:17.599Z,4.35
2019-04-20T10:22:40.603Z,4.67
2019-04-20T10:25:10.716Z,4.90
2019-04-20T10:27:41.927Z,4.85
2019-04-20T10:30:10.438Z,4.78
2019-04-20T10:32:44.784Z,4.50
2019-04-20T10:35:13.398Z,4.50
2019-04-20T10:37:45.230Z,4.28
2019-04-20T10:40:22.203Z,4.75
2019-04-20T10:42:44.138Z,5.10
2019-04-20T10:45:12.945Z,4.50
2019-04-20T10:47:41.519Z,4.97
2019-04-20T10:50:11.366Z,3.95
2019-04-20T10:52:39.997Z,4.05
2019-04-20T10:55:08.587Z,4.33
2019-04-20T10:57:37.582Z,4.03
2019-04-20T11:00:07.838Z,4.37
2019-04-20T11:02:37.391Z,3.90
2019-04-20T11:05:06.523Z,3.95
2019-04-20T11:07:36.598Z,4.17
2019-04-20T11:10:14.945Z,3.77
2019-04-20T11:12:38.009Z,4.12
2019-04-20T11:15:06.683Z,3.98
2019-04-20T11:17:35.364Z,4.40
2019-04-20T11:20:05.329Z,4.03
2019-04-20T11:22:34.718Z,3.72
2019-04-20T11:25:04.301Z,3.90
2019-04-20T11:27:34.123Z,3.90
2019-04-20T11:30:02.866Z,4.30
2019-04-20T11:32:31.538Z,4.08
2019-04-20T11:35:01.057Z,3.85
2019-04-20T11:37:31.103Z,3.98
2019-04-20T11:40:01.180Z,3.95
2019-04-20T11:42:30.042Z,3.75
2019-04-20T11:44:58.606Z,3.72
2019-04-20T11:47:28.219Z,3.87
2019-04-20T11:49:57.674Z,4.08
2019-04-20T11:52:27.078Z,3.65
2019-04-20T11:54:58.046Z,3.25
2019-04-20T11:57:27.181Z,4.15
2019-04-20T11:59:57.092Z,3.85
2019-04-20T12:03:11.195Z,3.70
2019-04-20T12:05:39.091Z,3.62
2019-04-20T12:08:02.993Z,3.70
2019-04-20T12:10:33.041Z,3.22
2019-04-20T12:13:01.903Z,3.62
2019-04-20T12:15:34.534Z,2.95
2019-04-20T12:18:01.954Z,3.10
2019-04-20T12:20:30.674Z,3.50
2019-04-20T12:23:00.239Z,3.65
2019-04-20T12:25:31.639Z,3.60
2019-04-20T12:28:01.896Z,3.15
2019-04-20T12:30:29.956Z,3.42
2019-04-20T12:33:01.898Z,3.12
2019-04-20T12:35:30.008Z,3.40
2019-04-20T12:37:58.945Z,3.33
2019-04-20T12:40:28.136Z,3.10
2019-04-20T12:42:57.286Z,2.70
2019-04-20T12:45:25.950Z,2.92
2019-04-20T12:47:55.553Z,2.70
2019-04-20T12:50:25.587Z,2.80
2019-04-20T12:52:54.756Z,3.62
2019-04-20T12:55:23.498Z,3.20
2019-04-20T12:57:52.489Z,3.02
2019-04-20T13:00:21.564Z,3.12
2019-04-20T13:02:51.469Z,3.20
2019-04-20T13:05:20.269Z,3.10
2019-04-20T13:07:54.537Z,3.12
2019-04-20T13:10:19.145Z,2.72
2019-04-20T13:13:10.262Z,3.00
2019-04-20T13:16:00.831Z,2.58
2019-04-20T13:18:35.003Z,2.87
2019-04-20T13:21:04.822Z,3.10
2019-04-20T13:23:35.048Z,2.92
2019-04-20T13:26:05.922Z,3.12
2019-04-20T13:28:34.718Z,2.80
2019-04-20T13:31:03.960Z,3.10
2019-04-20T13:33:33.549Z,2.33
2019-04-20T13:36:02.295Z,2.90
2019-04-20T13:38:31.998Z,2.95
2019-04-20T13:41:02.021Z,2.65
2019-04-20T13:43:32.002Z,2.90
2019-04-20T13:46:00.847Z,2.33
2019-04-20T13:48:30.993Z,2.67
2019-04-20T13:51:00.214Z,2.35
2019-04-20T13:53:29.715Z,3.20
2019-04-20T13:55:59.245Z,2.45
2019-04-20T13:58:51.874Z,2.20
2019-04-20T14:01:55.066Z,2.50
2019-04-20T14:04:36.921Z,2.80
2019-04-20T14:07:05.942Z,2.45
2019-04-20T14:09:35.395Z,2.58
2019-04-20T14:12:15.158Z,3.42
2019-04-20T14:14:35.073Z,2.65
2019-04-20T14:17:05.283Z,3.00
2019-04-20T14:19:34.838Z,2.70
2019-04-20T14:22:03.996Z,2.50
2019-04-20T14:24:33.158Z,2.80
2019-04-20T14:27:03.171Z,2.90
2019-04-20T14:29:32.738Z,2.98
2019-04-20T14:32:03.659Z,6.75
2019-04-20T14:34:33.062Z,2.87
2019-04-20T14:37:02.538Z,2.85
2019-04-20T14:39:32.278Z,2.75
2019-04-20T14:42:02.308Z,3.10
2019-04-20T14:44:32.019Z,3.20
2019-04-20T14:47:00.780Z,3.45
2019-04-20T14:49:30.775Z,2.77
2019-04-20T14:52:01.209Z,3.22
2019-04-20T14:54:29.715Z,2.60
2019-04-20T14:56:59.169Z,3.35
2019-04-20T14:59:31.759Z,3.08
2019-04-20T15:02:08.926Z,2.67
2019-04-20T15:04:38.946Z,3.60
2019-04-20T15:07:08.734Z,3.02
2019-04-20T15:09:38.944Z,2.90
2019-04-20T15:12:08.815Z,3.27
2019-04-20T15:14:38.685Z,2.85
2019-04-20T15:17:10.826Z,3.40
2019-04-20T15:20:01.447Z,2.90
2019-04-20T15:22:49.952Z,3.10
2019-04-20T15:25:18.566Z,2.70
2019-04-20T15:27:48.199Z,2.70
2019-04-20T15:30:18.260Z,2.65
2019-04-20T15:32:47.159Z,2.85
2019-04-20T15:35:19.087Z,2.72
2019-04-20T15:37:47.055Z,3.27
2019-04-20T15:40:17.159Z,3.22
2019-04-20T15:42:55.028Z,3.02
2019-04-20T15:45:16.333Z,3.00
2019-04-20T15:47:45.834Z,3.10
2019-04-20T15:50:15.869Z,4.00
2019-04-20T15:52:49.430Z,3.12
2019-04-20T15:55:24.058Z,3.58
2019-04-20T15:57:45.430Z,3.08
2019-04-20T16:00:14.351Z,2.98
2019-04-20T16:02:47.306Z,3.07
2019-04-20T16:05:22.178Z,3.70
2019-04-20T16:07:56.546Z,3.60
2019-04-20T16:10:21.290Z,2.92
2019-04-20T16:13:02.985Z,4.00
2019-04-20T16:15:20.285Z,4.00
2019-04-20T16:17:52.672Z,5.35
2019-04-20T16:20:23.119Z,6.10
2019-04-20T16:22:49.815Z,4.70
2019-04-20T16:25:37.478Z,4.00
2019-04-20T16:28:06.043Z,4.03
2019-04-20T16:30:35.863Z,2.85
2019-04-20T16:33:04.678Z,3.25
2019-04-20T16:35:34.231Z,3.00
2019-04-20T16:38:02.895Z,2.98
2019-04-20T16:40:31.581Z,2.72
2019-04-20T16:43:00.501Z,3.02
2019-04-20T16:45:29.536Z,2.25
2019-04-20T16:48:00.032Z,3.00
2019-04-20T16:50:28.938Z,2.92
2019-04-20T16:52:59.036Z,2.80
2019-04-20T16:55:28.506Z,3.52
2019-04-20T16:57:57.498Z,5.72
2019-04-20T17:00:27.405Z,3.42
2019-04-20T17:02:56.302Z,2.73
2019-04-20T17:05:25.718Z,2.53
2019-04-20T17:07:55.518Z,2.93
2019-04-20T17:10:24.454Z,2.87
2019-04-20T17:12:53.705Z,6.57
2019-04-20T17:15:23.484Z,10.33
2019-04-20T17:17:53.791Z,5.93
2019-04-20T17:20:25.114Z,6.93
2019-04-20T17:22:54.106Z,6.00
2019-04-20T17:25:23.952Z,5.73
2019-04-20T17:28:18.266Z,17.37
2019-04-20T17:30:58.973Z,7.20
2019-04-20T17:33:52.396Z,7.27
2019-04-20T17:36:17.349Z,4.30
2019-04-20T17:38:44.556Z,4.07
2019-04-20T17:41:34.454Z,3.60
2019-04-20T17:44:04.291Z,3.70
2019-04-20T17:46:24.414Z,3.00
2019-04-20T17:48:59.688Z,3.37
2019-04-20T17:51:34.211Z,3.63
2019-04-20T17:54:06.699Z,3.60
2019-04-20T17:56:40.372Z,3.30
2019-04-20T17:59:10.344Z,4.03
2019-04-20T18:02:11.867Z,3.90
2019-04-20T18:05:02.633Z,3.73
2019-04-20T18:07:28.450Z,3.80
2019-04-20T18:09:58.787Z,3.27
2019-04-20T18:12:08.527Z,4.23
2019-04-20T18:14:51.683Z,3.57
2019-04-20T18:17:25.218Z,3.00
2019-04-20T18:19:56.925Z,3.10
2019-04-20T18:22:25.811Z,2.87
2019-04-20T18:25:12.465Z,2.80
2019-04-20T18:27:42.656Z,2.60
2019-04-20T18:30:11.725Z,2.63
2019-04-20T18:32:31.499Z,3.07
2019-04-20T18:35:18.315Z,3.40
2019-04-20T18:37:52.689Z,3.63
2019-04-20T18:40:29.154Z,3.37
2019-04-20T18:42:59.630Z,3.20
2019-04-20T18:45:38.142Z,4.70
2019-04-20T18:48:07.485Z,4.67
2019-04-20T18:50:27.568Z,4.77
2019-04-20T18:52:49.822Z,5.03
2019-04-20T18:55:27.458Z,4.30
2019-04-20T18:57:49.086Z,4.37
2019-04-20T19:00:27.049Z,4.13
2019-04-20T19:02:54.364Z,4.13
2019-04-20T19:05:21.976Z,4.77
2019-04-20T19:07:57.810Z,4.77
2019-04-20T19:10:27.542Z,4.20
2019-04-20T19:12:59.961Z,4.57
2019-04-20T19:16:09.337Z,4.47
2019-04-20T19:18:50.451Z,4.77
2019-04-20T19:21:08.979Z,4.73
2019-04-20T19:23:48.578Z,5.10
2019-04-20T19:26:13.806Z,5.23
2019-04-20T19:28:45.107Z,4.80
2019-04-20T19:31:26.597Z,4.77
2019-04-20T19:34:00.667Z,5.00
2019-04-20T19:36:19.747Z,4.70
2019-04-20T19:38:52.389Z,4.93
2019-04-20T19:41:25.335Z,5.17
2019-04-20T19:43:53.256Z,4.50
2019-04-20T19:46:45.859Z,4.73
2019-04-20T19:48:53.988Z,4.00
2019-04-20T19:51:38.538Z,4.13
2019-04-20T19:54:01.003Z,3.80
2019-04-20T19:56:31.013Z,4.23
2019-04-20T19:58:58.923Z,4.27
2019-04-20T20:01:13.519Z,3.97
2019-04-20T20:03:43.426Z,4.23
2019-04-20T20:06:25.811Z,4.53
2019-04-20T20:08:51.515Z,3.90
2019-04-20T20:11:21.828Z,3.80
2019-04-20T20:13:49.667Z,3.70
2019-04-20T20:16:23.454Z,3.40
2019-04-20T20:18:57.255Z,3.10
2019-04-20T20:21:23.767Z,3.13
2019-04-20T20:23:45.881Z,3.53
2019-04-20T20:26:23.095Z,3.80
2019-04-20T20:28:51.700Z,4.03
2019-04-20T20:31:24.572Z,3.80
2019-04-20T20:33:58.130Z,3.80
2019-04-20T20:36:21.265Z,4.10
2019-04-20T20:38:52.062Z,4.30
2019-04-20T20:41:25.634Z,4.03
2019-04-20T20:43:56.379Z,5.03
2019-04-20T20:46:27.444Z,4.43
2019-04-20T20:49:11.790Z,4.90
2019-04-20T20:51:44.017Z,4.70
2019-04-20T20:53:56.421Z,4.53
2019-04-20T20:56:24.105Z,4.60
2019-04-20T20:58:59.553Z,5.07
2019-04-20T21:01:23.796Z,5.37
2019-04-20T21:03:52.994Z,4.23
2019-04-20T21:06:20.262Z,4.67
2019-04-20T21:08:52.358Z,4.30
2019-04-20T21:11:23.692Z,4.23
2019-04-20T21:13:51.881Z,4.50
2019-04-20T21:16:25.605Z,5.10
2019-04-20T21:19:10.465Z,4.43
2019-04-20T21:21:38.553Z,4.47
2019-04-20T21:24:02.145Z,4.17
2019-04-20T21:26:32.038Z,4.40
2019-04-20T21:28:57.578Z,4.40
2019-04-20T21:31:27.872Z,4.43
2019-04-20T21:33:57.676Z,4.07
2019-04-20T21:36:31.283Z,4.50
2019-04-20T21:38:58.328Z,4.07
2019-04-20T21:41:27.881Z,3.90
2019-04-20T21:43:58.087Z,4.27
2019-04-20T21:46:29.877Z,4.27
2019-04-20T21:49:09.338Z,4.00
2019-04-20T21:51:37.055Z,4.57
2019-04-20T21:54:00.337Z,4.40
2019-04-20T21:56:30.008Z,4.17
2019-04-20T21:59:02.688Z,4.37
2019-04-20T23:25:49.142Z,3.57
2019-04-20T23:28:20.854Z,3.50
2019-04-20T23:30:51.906Z,3.73
2019-04-20T23:33:18.478Z,3.93
2019-04-20T23:35:53.024Z,3.50
2019-04-20T23:38:21.166Z,4.70
2019-04-20T23:40:47.954Z,4.03
2019-04-20T23:43:24.988Z,4.03
2019-04-20T23:46:17.020Z,4.50
2019-04-20T23:49:18.424Z,3.50
2019-04-20T23:52:00.704Z,3.50
2019-04-20T23:54:15.855Z,4.13
2019-04-20T23:56:39.784Z,3.77
2019-04-20T23:59:08.625Z,3.80
